Time;durP1;ratioP1;P1;durP2;ratioP2;P2;SDS_P1;SDS_P2;PMS_P1;PMS_P2;Temp;Humidity;BMP_temperature;BMP_pressure;BME280_temperature;BME280_humidity;BME280_pressure;Samples;Min_cycle;Max_cycle;Signal;HPM_P1;HPM_P2
2021/12/24 00:00:16;;;;;;;0.68;0.28;;;;;;;;;;5054778;28;20020;-64
2021/12/24 00:02:41;;;;;;;0.95;0.32;;;;;;;;;;5054037;28;20028;-64
2021/12/24 00:05:07;;;;;;;0.10;0.10;;;;;;;;;;5054286;28;20547;-64
2021/12/24 00:07:32;;;;;;;0.15;0.10;;;;;;;;;;5052908;28;20017;-65
2021/12/24 00:09:58;;;;;;;0.22;0.10;;;;;;;;;;5053867;28;20628;-66
2021/12/24 00:12:26;;;;;;;0.20;0.10;;;;;;;;;;5053309;28;20291;-65
2021/12/24 00:14:55;;;;;;;0.43;0.20;;;;;;;;;;5053902;28;20104;-64
2021/12/24 00:17:27;;;;;;;0.20;0.20;;;;;;;;;;5054127;28;20027;-64
2021/12/24 00:35:58;;;;;;;0.20;0.10;;;;;;;;;;4972708;28;20033;-65
2021/12/24 00:38:23;;;;;;;0.67;0.20;;;;;;;;;;4972745;28;20042;-64
2021/12/24 00:40:48;;;;;;;0.22;0.10;;;;;;;;;;4956143;28;20474;-66
2021/12/24 00:43:14;;;;;;;0.30;0.05;;;;;;;;;;4972484;28;20022;-65
2021/12/24 00:45:42;;;;;;;0.30;0.10;;;;;;;;;;4972215;28;20047;-65
2021/12/24 00:48:08;;;;;;;0.50;0.10;;;;;;;;;;4986600;28;20026;-64
2021/12/24 00:50:52;;;;;;;0.38;0.20;;;;;;;;;;4991593;28;20023;-64
2021/12/24 00:56:08;;;;;;;0.20;0.10;;;;;;;;;;4991666;28;20034;-64
2021/12/24 00:58:34;;;;;;;0.28;0.10;;;;;;;;;;4981229;28;20034;-65
2021/12/24 01:00:59;;;;;;;0.43;0.10;;;;;;;;;;4972172;28;20039;-66
2021/12/24 01:03:24;;;;;;;0.50;0.00;;;;;;;;;;4972093;28;20031;-65
2021/12/24 01:05:50;;;;;;;0.20;0.20;;;;;;;;;;4974937;28;20257;-65
2021/12/24 01:08:15;;;;;;;0.20;0.00;;;;;;;;;;5033254;28;20025;-64
2021/12/24 01:10:42;;;;;;;0.40;0.10;;;;;;;;;;5031886;28;20017;-64
2021/12/24 01:13:07;;;;;;;1.85;0.35;;;;;;;;;;5033170;28;20025;-65
2021/12/24 01:15:36;;;;;;;0.20;0.20;;;;;;;;;;5033014;28;20026;-65
2021/12/24 01:18:15;;;;;;;0.13;0.10;;;;;;;;;;5033112;28;20024;-64
2021/12/24 01:20:48;;;;;;;0.20;0.10;;;;;;;;;;5032735;28;20052;-64
2021/12/24 01:23:29;;;;;;;0.20;0.10;;;;;;;;;;5032414;28;20552;-64
2021/12/24 01:26:05;;;;;;;0.70;0.10;;;;;;;;;;5013327;28;20069;-65
2021/12/24 01:28:45;;;;;;;0.30;0.17;;;;;;;;;;5032736;28;20026;-65
2021/12/24 01:39:39;;;;;;;0.63;0.30;;;;;;;;;;5032712;28;20270;-64
2021/12/24 01:44:49;;;;;;;0.35;0.25;;;;;;;;;;5032402;28;20040;-66
2021/12/24 01:47:14;;;;;;;0.97;0.10;;;;;;;;;;5039947;28;20016;-65
2021/12/24 01:49:39;;;;;;;0.67;0.10;;;;;;;;;;5052390;28;20460;-64
2021/12/24 01:52:05;;;;;;;0.40;0.13;;;;;;;;;;5052481;28;20021;-64
2021/12/24 01:54:30;;;;;;;0.52;0.10;;;;;;;;;;5052327;28;20612;-65
2021/12/24 01:56:56;;;;;;;0.98;0.10;;;;;;;;;;5052405;28;20021;-66
2021/12/24 01:59:21;;;;;;;0.85;0.20;;;;;;;;;;5052355;28;20052;-65
2021/12/24 02:01:46;;;;;;;0.10;0.10;;;;;;;;;;5052285;28;20025;-65
2021/12/24 02:04:13;;;;;;;0.63;0.00;;;;;;;;;;5052246;28;20017;-64
2021/12/24 02:06:39;;;;;;;0.40;0.10;;;;;;;;;;5052159;28;20021;-64
2021/12/24 02:09:05;;;;;;;1.10;0.00;;;;;;;;;;5052295;28;20024;-65
2021/12/24 02:11:30;;;;;;;0.50;0.10;;;;;;;;;;5052250;28;20036;-66
2021/12/24 02:13:56;;;;;;;0.30;0.00;;;;;;;;;;5052489;28;20442;-65
2021/12/24 02:16:39;;;;;;;0.10;0.10;;;;;;;;;;5052232;28;20318;-65
2021/12/24 02:30:19;;;;;;;0.55;0.30;;;;;;;;;;4990460;28;20062;-66
2021/12/24 02:32:44;;;;;;;0.17;0.00;;;;;;;;;;4990199;28;20030;-65
2021/12/24 02:35:10;;;;;;;0.63;0.05;;;;;;;;;;4992814;28;20029;-65
2021/12/24 02:37:35;;;;;;;0.45;0.05;;;;;;;;;;4994115;28;20022;-65
2021/12/24 02:40:00;;;;;;;0.40;0.20;;;;;;;;;;4994252;28;20038;-64
2021/12/24 02:42:25;;;;;;;0.57;0.10;;;;;;;;;;4994041;28;20022;-64
2021/12/24 02:44:51;;;;;;;0.20;0.13;;;;;;;;;;4993949;28;20038;-65
2021/12/24 02:54:58;;;;;;;0.45;0.10;;;;;;;;;;5055926;28;20074;-65
2021/12/24 02:57:27;;;;;;;0.40;0.00;;;;;;;;;;5055628;28;20029;-66
2021/12/24 03:00:00;;;;;;;0.45;0.10;;;;;;;;;;5055406;28;20384;-66
2021/12/24 03:02:26;;;;;;;0.15;0.03;;;;;;;;;;5055576;28;20025;-66
2021/12/24 03:04:51;;;;;;;0.63;0.13;;;;;;;;;;5055507;28;20440;-65
2021/12/24 03:07:16;;;;;;;1.17;0.10;;;;;;;;;;5054226;28;20028;-65
2021/12/24 03:09:42;;;;;;;0.40;0.00;;;;;;;;;;5054195;28;20305;-64
2021/12/24 03:12:07;;;;;;;0.57;0.03;;;;;;;;;;5055318;28;20021;-64
2021/12/24 03:14:32;;;;;;;0.57;0.10;;;;;;;;;;5055210;28;20025;-65
2021/12/24 03:17:00;;;;;;;0.30;0.10;;;;;;;;;;5055565;28;20443;-66
2021/12/24 03:19:29;;;;;;;0.93;0.10;;;;;;;;;;5055277;28;20108;-65
2021/12/24 03:22:00;;;;;;;1.35;0.20;;;;;;;;;;5054874;28;20112;-64
2021/12/24 03:26:50;;;;;;;0.50;0.00;;;;;;;;;;5035305;28;20032;-64
2021/12/24 03:29:16;;;;;;;1.10;0.10;;;;;;;;;;5035115;28;20289;-65
2021/12/24 03:31:43;;;;;;;0.22;0.10;;;;;;;;;;5034942;28;20021;-65
2021/12/24 03:34:09;;;;;;;0.45;0.10;;;;;;;;;;5034992;28;20017;-64
2021/12/24 03:36:34;;;;;;;0.25;0.10;;;;;;;;;;5033554;28;20036;-64
2021/12/24 03:38:59;;;;;;;0.10;0.10;;;;;;;;;;5034920;28;20025;-65
2021/12/24 03:41:25;;;;;;;0.40;0.00;;;;;;;;;;5034940;28;20281;-65
2021/12/24 03:43:51;;;;;;;1.02;0.15;;;;;;;;;;5034540;28;20370;-65
2021/12/24 03:46:19;;;;;;;0.40;0.10;;;;;;;;;;5033233;28;20385;-66
2021/12/24 03:48:55;;;;;;;0.20;0.00;;;;;;;;;;5054186;28;20039;-65
2021/12/24 03:51:32;;;;;;;0.22;0.10;;;;;;;;;;5053305;28;20031;-65
2021/12/24 03:56:42;;;;;;;0.05;0.03;;;;;;;;;;5054273;28;20044;-65
2021/12/24 03:59:07;;;;;;;0.30;0.10;;;;;;;;;;5054500;28;20025;-65
2021/12/24 04:01:33;;;;;;;0.57;0.15;;;;;;;;;;5054231;28;20025;-65
2021/12/24 04:03:58;;;;;;;0.63;0.20;;;;;;;;;;5054180;28;20147;-65
2021/12/24 04:06:24;;;;;;;0.13;0.08;;;;;;;;;;5054248;28;20372;-64
2021/12/24 04:08:49;;;;;;;0.70;0.10;;;;;;;;;;5054095;28;20154;-65
2021/12/24 04:11:14;;;;;;;0.47;0.10;;;;;;;;;;5054292;28;20254;-65
2021/12/24 04:13:40;;;;;;;0.55;0.10;;;;;;;;;;5054099;28;20298;-64
2021/12/24 04:16:05;;;;;;;0.20;0.10;;;;;;;;;;5054169;28;20017;-64
2021/12/24 04:26:23;;;;;;;0.20;0.10;;;;;;;;;;5034022;28;20045;-65
2021/12/24 04:28:49;;;;;;;1.57;0.27;;;;;;;;;;5033780;28;20477;-66
2021/12/24 04:31:14;;;;;;;1.00;0.27;;;;;;;;;;5033964;28;20243;-65
2021/12/24 04:33:45;;;;;;;0.25;0.10;;;;;;;;;;5033707;28;20808;-65
2021/12/24 04:39:00;;;;;;;0.30;0.10;;;;;;;;;;5033879;28;20192;-64
2021/12/24 05:03:05;;;;;;;1.23;0.10;;;;;;;;;;5033320;28;20032;-64
2021/12/24 05:05:43;;;;;;;0.95;0.20;;;;;;;;;;5033227;28;20017;-64
2021/12/24 05:08:18;;;;;;;0.10;0.00;;;;;;;;;;5033316;28;20021;-65
2021/12/24 05:10:44;;;;;;;0.38;0.10;;;;;;;;;;5032902;28;20045;-65
2021/12/24 05:13:10;;;;;;;0.28;0.00;;;;;;;;;;5033236;28;20028;-64
2021/12/24 05:15:39;;;;;;;0.55;0.10;;;;;;;;;;5033155;28;20195;-64
2021/12/24 05:23:13;;;;;;;0.45;0.20;;;;;;;;;;5032827;28;20080;-65
2021/12/24 05:25:43;;;;;;;0.00;0.00;;;;;;;;;;5033077;28;20045;-65
2021/12/24 05:28:08;;;;;;;0.00;0.00;;;;;;;;;;5032865;28;20329;-64
2021/12/24 05:30:33;;;;;;;0.37;0.10;;;;;;;;;;5032733;28;20445;-64
2021/12/24 05:32:59;;;;;;;0.43;0.10;;;;;;;;;;5032765;28;20272;-64
2021/12/24 05:35:24;;;;;;;0.28;0.10;;;;;;;;;;5032824;28;20219;-66
2021/12/24 05:37:49;;;;;;;0.40;0.10;;;;;;;;;;5032649;28;20060;-65
2021/12/24 05:40:14;;;;;;;0.17;0.00;;;;;;;;;;5032767;28;20113;-65
2021/12/24 05:42:39;;;;;;;0.47;0.00;;;;;;;;;;5032677;28;20258;-64
2021/12/24 05:45:07;;;;;;;0.47;0.00;;;;;;;;;;5032827;28;20112;-66
2021/12/24 05:47:32;;;;;;;0.98;0.10;;;;;;;;;;5042443;28;20721;-66
2021/12/24 05:49:58;;;;;;;1.17;0.30;;;;;;;;;;5052487;28;20025;-66
2021/12/24 05:52:23;;;;;;;0.52;0.38;;;;;;;;;;5052427;28;20021;-65
2021/12/24 05:54:48;;;;;;;0.43;0.03;;;;;;;;;;5052351;28;20027;-64
2021/12/24 05:57:14;;;;;;;0.00;0.00;;;;;;;;;;5052400;28;20070;-64
2021/12/24 05:59:39;;;;;;;0.13;0.00;;;;;;;;;;5052653;28;20087;-65
2021/12/24 06:02:04;;;;;;;0.57;0.00;;;;;;;;;;5052392;28;20380;-65
2021/12/24 06:04:29;;;;;;;0.20;0.10;;;;;;;;;;5052156;28;20139;-64
2021/12/24 06:06:55;;;;;;;0.27;0.10;;;;;;;;;;5052228;28;20021;-64
2021/12/24 06:09:20;;;;;;;1.38;0.00;;;;;;;;;;5055369;28;20384;-64
2021/12/24 06:11:45;;;;;;;0.10;0.00;;;;;;;;;;5056357;28;20021;-64
2021/12/24 06:14:12;;;;;;;0.50;0.10;;;;;;;;;;5056742;28;20296;-64
2021/12/24 06:16:45;;;;;;;1.65;0.10;;;;;;;;;;5056207;28;20594;-65
2021/12/24 06:19:11;;;;;;;0.85;0.10;;;;;;;;;;5055038;28;20033;-65
2021/12/24 06:21:36;;;;;;;0.33;0.20;;;;;;;;;;5056118;28;20083;-65
2021/12/24 06:24:01;;;;;;;0.95;0.10;;;;;;;;;;5050162;28;20287;-65
2021/12/24 06:26:26;;;;;;;0.00;0.00;;;;;;;;;;5036217;28;20424;-65
2021/12/24 06:28:51;;;;;;;0.03;0.00;;;;;;;;;;5036062;28;20017;-64
2021/12/24 06:31:17;;;;;;;1.25;0.63;;;;;;;;;;5036013;28;20243;-64
2021/12/24 06:33:42;;;;;;;0.10;0.10;;;;;;;;;;5035921;28;20013;-65
2021/12/24 06:36:07;;;;;;;0.22;0.03;;;;;;;;;;5036185;28;20029;-64
2021/12/24 06:38:32;;;;;;;0.25;0.20;;;;;;;;;;5036033;28;20591;-65
2021/12/24 06:40:58;;;;;;;1.08;0.10;;;;;;;;;;5036238;28;20568;-66
2021/12/24 06:43:23;;;;;;;0.67;0.10;;;;;;;;;;5035924;28;20086;-65
2021/12/24 06:45:49;;;;;;;1.07;0.10;;;;;;;;;;5035721;28;20258;-65
2021/12/24 06:48:15;;;;;;;0.85;0.30;;;;;;;;;;5051954;28;20269;-65
2021/12/24 06:50:40;;;;;;;0.10;0.00;;;;;;;;;;5055524;28;20045;-64
2021/12/24 06:53:05;;;;;;;1.38;0.10;;;;;;;;;;5055730;28;20023;-64
2021/12/24 06:55:30;;;;;;;1.37;0.30;;;;;;;;;;5055670;28;20095;-65
2021/12/24 06:57:55;;;;;;;0.30;0.00;;;;;;;;;;5055521;28;20709;-65
2021/12/24 07:00:21;;;;;;;0.15;0.10;;;;;;;;;;5054322;28;20451;-64
2021/12/24 07:02:47;;;;;;;0.20;0.10;;;;;;;;;;5055395;28;20025;-64
2021/12/24 07:05:12;;;;;;;0.17;0.10;;;;;;;;;;5054124;28;20075;-64
2021/12/24 07:07:37;;;;;;;0.57;0.13;;;;;;;;;;5055295;28;20017;-64
2021/12/24 07:10:04;;;;;;;0.10;0.10;;;;;;;;;;5055712;28;20032;-65
2021/12/24 07:12:29;;;;;;;0.65;0.10;;;;;;;;;;5055263;28;20044;-64
2021/12/24 07:14:54;;;;;;;0.22;0.10;;;;;;;;;;5055174;28;20055;-65
2021/12/24 07:17:19;;;;;;;0.25;0.10;;;;;;;;;;5055609;28;20021;-64
2021/12/24 07:19:45;;;;;;;0.20;0.10;;;;;;;;;;5054277;28;20033;-64
2021/12/24 07:22:12;;;;;;;0.13;0.13;;;;;;;;;;5055042;28;20411;-64
2021/12/24 07:24:37;;;;;;;0.40;0.20;;;;;;;;;;5043821;28;20112;-65
2021/12/24 07:27:03;;;;;;;0.20;0.10;;;;;;;;;;5035268;28;20101;-65
2021/12/24 07:29:28;;;;;;;0.20;0.10;;;;;;;;;;5035083;28;20432;-64
2021/12/24 07:31:54;;;;;;;0.80;0.50;;;;;;;;;;5034935;28;20445;-65
2021/12/24 07:34:19;;;;;;;0.35;0.20;;;;;;;;;;5034983;28;20017;-64
2021/12/24 07:36:44;;;;;;;0.00;0.00;;;;;;;;;;5034755;28;20200;-64
2021/12/24 07:39:09;;;;;;;0.00;0.00;;;;;;;;;;5034977;28;20756;-63
2021/12/24 07:41:34;;;;;;;0.00;0.00;;;;;;;;;;5035121;28;20026;-65
2021/12/24 07:44:01;;;;;;;2.15;0.20;;;;;;;;;;5034857;28;20052;-65
2021/12/24 07:46:33;;;;;;;0.10;0.05;;;;;;;;;;5035501;28;20009;-64
2021/12/24 07:49:11;;;;;;;0.40;0.10;;;;;;;;;;5055327;28;20041;-66
2021/12/24 07:54:20;;;;;;;0.10;0.10;;;;;;;;;;5054917;28;20439;-64
2021/12/24 07:56:45;;;;;;;0.30;0.10;;;;;;;;;;5054335;28;20052;-63
2021/12/24 07:59:12;;;;;;;1.20;0.30;;;;;;;;;;5054514;28;20033;-65
2021/12/24 08:01:37;;;;;;;0.22;0.10;;;;;;;;;;5054398;28;20404;-65
2021/12/24 08:04:03;;;;;;;0.30;0.07;;;;;;;;;;5053022;28;20029;-64
2021/12/24 08:06:28;;;;;;;0.75;0.30;;;;;;;;;;5054283;28;20018;-64
2021/12/24 08:08:54;;;;;;;0.95;0.20;;;;;;;;;;5054167;28;20029;-63
2021/12/24 08:11:19;;;;;;;0.47;0.10;;;;;;;;;;5054254;28;20095;-65
2021/12/24 08:13:44;;;;;;;0.17;0.10;;;;;;;;;;5054130;28;20246;-65
2021/12/24 08:16:09;;;;;;;0.60;0.20;;;;;;;;;;5054182;28;20407;-65
2021/12/24 08:18:36;;;;;;;0.55;0.20;;;;;;;;;;5053987;28;20300;-64
2021/12/24 08:21:02;;;;;;;0.32;0.05;;;;;;;;;;5054374;28;20067;-64
2021/12/24 08:23:27;;;;;;;0.33;0.17;;;;;;;;;;5052949;28;20053;-65
2021/12/24 08:25:58;;;;;;;1.13;0.20;;;;;;;;;;5033860;28;20627;-64
2021/12/24 08:28:23;;;;;;;0.60;0.20;;;;;;;;;;5033971;28;20028;-65
2021/12/24 08:30:48;;;;;;;0.50;0.15;;;;;;;;;;5033712;28;20424;-65
2021/12/24 08:33:15;;;;;;;0.47;0.07;;;;;;;;;;5032845;28;20034;-64
2021/12/24 08:35:40;;;;;;;0.00;0.00;;;;;;;;;;5033729;28;20670;-64
2021/12/24 08:38:05;;;;;;;0.43;0.30;;;;;;;;;;5033783;28;20056;-64
2021/12/24 08:40:30;;;;;;;0.53;0.10;;;;;;;;;;5033701;28;20433;-64
2021/12/24 08:42:56;;;;;;;0.13;0.10;;;;;;;;;;5033552;28;20247;-65
2021/12/24 08:45:21;;;;;;;0.95;0.10;;;;;;;;;;5033779;28;20025;-65
2021/12/24 08:47:46;;;;;;;0.88;0.13;;;;;;;;;;5045245;28;20029;-64
2021/12/24 08:50:13;;;;;;;2.00;0.37;;;;;;;;;;5053531;28;20036;-64
2021/12/24 08:52:38;;;;;;;0.50;0.10;;;;;;;;;;5053280;28;20291;-64
2021/12/24 08:55:03;;;;;;;0.07;0.00;;;;;;;;;;5053506;28;20493;-64
2021/12/24 08:57:28;;;;;;;1.17;0.47;;;;;;;;;;5051240;28;20025;-65
2021/12/24 08:59:53;;;;;;;0.98;0.20;;;;;;;;;;5033269;28;20481;-64
2021/12/24 09:02:19;;;;;;;0.43;0.10;;;;;;;;;;5033465;28;20029;-64
2021/12/24 09:04:44;;;;;;;0.43;0.07;;;;;;;;;;5033008;28;20742;-64
2021/12/24 09:07:10;;;;;;;0.20;0.10;;;;;;;;;;5033329;28;20254;-64
2021/12/24 09:09:35;;;;;;;0.55;0.20;;;;;;;;;;5033161;28;20515;-64
2021/12/24 09:12:01;;;;;;;0.30;0.10;;;;;;;;;;5033207;28;20029;-66
2021/12/24 09:14:26;;;;;;;1.47;0.53;;;;;;;;;;5033206;28;20109;-65
2021/12/24 09:16:51;;;;;;;0.43;0.13;;;;;;;;;;5032951;28;20694;-65
2021/12/24 09:19:22;;;;;;;0.40;0.10;;;;;;;;;;5033220;28;20380;-65
2021/12/24 09:21:47;;;;;;;0.80;0.20;;;;;;;;;;5032697;28;20107;-64
2021/12/24 09:24:13;;;;;;;0.60;0.10;;;;;;;;;;5033415;28;20048;-64
2021/12/24 09:26:39;;;;;;;0.77;0.45;;;;;;;;;;5032734;28;20033;-65
2021/12/24 09:29:05;;;;;;;0.30;0.20;;;;;;;;;;5032896;28;20022;-64
2021/12/24 09:31:31;;;;;;;0.40;0.10;;;;;;;;;;5032318;28;20370;-65
2021/12/24 09:33:56;;;;;;;1.08;0.30;;;;;;;;;;5033053;28;20017;-64
2021/12/24 09:36:25;;;;;;;0.60;0.20;;;;;;;;;;5032816;28;20400;-64
2021/12/24 09:38:51;;;;;;;0.10;0.10;;;;;;;;;;5032659;28;20087;-64
2021/12/24 09:41:17;;;;;;;0.28;0.10;;;;;;;;;;5032881;28;20021;-65
2021/12/24 09:43:42;;;;;;;0.40;0.15;;;;;;;;;;5032130;28;20353;-64
2021/12/24 09:46:07;;;;;;;0.10;0.10;;;;;;;;;;5032673;28;20066;-63
2021/12/24 09:48:33;;;;;;;0.95;0.20;;;;;;;;;;5050728;28;20023;-64
2021/12/24 09:50:58;;;;;;;0.85;0.10;;;;;;;;;;5052497;28;20013;-64
2021/12/24 09:53:23;;;;;;;0.70;0.20;;;;;;;;;;5052565;28;20040;-64
2021/12/24 09:55:48;;;;;;;0.10;0.10;;;;;;;;;;5052407;28;20347;-65
2021/12/24 09:58:13;;;;;;;0.08;0.08;;;;;;;;;;5052747;28;20704;-65
2021/12/24 10:00:39;;;;;;;0.10;0.10;;;;;;;;;;5052223;28;20439;-64
2021/12/24 10:03:05;;;;;;;0.10;0.10;;;;;;;;;;5052385;28;20086;-63
2021/12/24 10:05:41;;;;;;;0.05;0.05;;;;;;;;;;5052304;28;20631;-65
2021/12/24 10:08:09;;;;;;;0.17;0.10;;;;;;;;;;5051087;28;20021;-64
2021/12/24 10:10:35;;;;;;;0.28;0.20;;;;;;;;;;5052133;28;20021;-64
2021/12/24 10:13:19;;;;;;;0.45;0.10;;;;;;;;;;5052296;28;20017;-64
2021/12/24 10:15:51;;;;;;;0.60;0.10;;;;;;;;;;5052131;28;20490;-64
2021/12/24 10:18:26;;;;;;;1.33;0.10;;;;;;;;;;5052313;28;20111;-64
2021/12/24 10:20:59;;;;;;;0.30;0.00;;;;;;;;;;5052174;28;20460;-64
2021/12/24 10:23:37;;;;;;;0.20;0.05;;;;;;;;;;5051103;28;20056;-64
2021/12/24 10:26:13;;;;;;;0.32;0.20;;;;;;;;;;5032292;28;20029;-63
2021/12/24 10:28:38;;;;;;;1.35;0.10;;;;;;;;;;5032139;28;20554;-63
2021/12/24 10:31:03;;;;;;;0.50;0.20;;;;;;;;;;5032105;28;20101;-65
2021/12/24 10:33:28;;;;;;;0.77;0.32;;;;;;;;;;5032470;28;20059;-64
2021/12/24 10:36:00;;;;;;;0.50;0.20;;;;;;;;;;5031976;28;20069;-63
2021/12/24 10:38:25;;;;;;;0.40;0.00;;;;;;;;;;5030713;28;20017;-64
2021/12/24 10:40:53;;;;;;;0.30;0.10;;;;;;;;;;5032046;28;20048;-64
2021/12/24 10:43:33;;;;;;;0.60;0.10;;;;;;;;;;5032098;28;20282;-64
2021/12/24 10:46:15;;;;;;;1.02;0.10;;;;;;;;;;5032083;28;20468;-66
2021/12/24 10:48:58;;;;;;;0.20;0.10;;;;;;;;;;5051188;28;20367;-65
2021/12/24 10:51:52;;;;;;;0.45;0.35;;;;;;;;;;5051966;28;20028;-64
2021/12/24 10:54:09;;;;;;;0.20;0.10;;;;;;;;;;5051849;28;20044;-64
2021/12/24 10:56:34;;;;;;;0.37;0.20;;;;;;;;;;5054707;28;20106;-65
2021/12/24 10:59:00;;;;;;;0.57;0.35;;;;;;;;;;5056252;28;20261;-64
2021/12/24 11:01:25;;;;;;;1.60;0.20;;;;;;;;;;5055602;28;20021;-64
2021/12/24 11:03:51;;;;;;;0.68;0.20;;;;;;;;;;5055395;28;20112;-65
2021/12/24 11:06:16;;;;;;;0.30;0.10;;;;;;;;;;5055548;28;20075;-64
2021/12/24 11:08:42;;;;;;;2.15;0.38;;;;;;;;;;5055171;28;20254;-65
2021/12/24 11:11:10;;;;;;;1.25;0.20;;;;;;;;;;5055475;28;20013;-65
2021/12/24 11:13:39;;;;;;;0.63;0.20;;;;;;;;;;5053953;28;20013;-64
2021/12/24 11:16:06;;;;;;;0.80;0.22;;;;;;;;;;5055455;28;20372;-64
2021/12/24 11:18:34;;;;;;;1.48;0.25;;;;;;;;;;5053878;28;20120;-64
2021/12/24 11:21:07;;;;;;;0.55;0.10;;;;;;;;;;5055297;28;20059;-66
2021/12/24 11:23:33;;;;;;;0.55;0.10;;;;;;;;;;5052888;28;20056;-65
2021/12/24 11:26:01;;;;;;;0.55;0.08;;;;;;;;;;5035468;28;20033;-65
2021/12/24 11:28:27;;;;;;;0.55;0.20;;;;;;;;;;5035110;28;20100;-64
2021/12/24 11:30:54;;;;;;;0.10;0.10;;;;;;;;;;5034954;28;20097;-64
2021/12/24 11:33:20;;;;;;;0.70;0.10;;;;;;;;;;5035151;28;20024;-64
2021/12/24 11:35:47;;;;;;;0.43;0.10;;;;;;;;;;5033576;28;20025;-65
2021/12/24 11:38:13;;;;;;;1.00;0.10;;;;;;;;;;5035002;28;20021;-64
2021/12/24 11:40:38;;;;;;;0.40;0.25;;;;;;;;;;5035005;28;20021;-64
2021/12/24 11:43:04;;;;;;;2.85;0.10;;;;;;;;;;5035197;28;20029;-64
2021/12/24 11:45:30;;;;;;;1.45;0.10;;;;;;;;;;5035071;28;20013;-64
2021/12/24 11:47:55;;;;;;;0.95;0.10;;;;;;;;;;5047766;28;20021;-64
2021/12/24 11:50:21;;;;;;;1.00;0.10;;;;;;;;;;5054717;28;20025;-65
2021/12/24 11:52:48;;;;;;;0.80;0.10;;;;;;;;;;5054722;28;20420;-64
2021/12/24 11:55:14;;;;;;;0.10;0.10;;;;;;;;;;5053595;28;20460;-64
2021/12/24 11:57:49;;;;;;;0.43;0.10;;;;;;;;;;5054426;28;20047;-64
2021/12/24 12:00:19;;;;;;;0.38;0.10;;;;;;;;;;5054809;28;20021;-65
2021/12/24 12:02:45;;;;;;;0.32;0.17;;;;;;;;;;5054170;28;20112;-65
2021/12/24 12:05:15;;;;;;;0.40;0.10;;;;;;;;;;5054290;28;20415;-65
2021/12/24 12:07:41;;;;;;;0.00;0.00;;;;;;;;;;5054042;28;20389;-64
2021/12/24 12:10:07;;;;;;;1.23;0.10;;;;;;;;;;5054369;28;20021;-65
2021/12/24 12:12:33;;;;;;;0.73;0.20;;;;;;;;;;5054276;28;20021;-64
2021/12/24 12:15:17;;;;;;;0.20;0.00;;;;;;;;;;5054195;28;20016;-65
2021/12/24 12:17:49;;;;;;;0.20;0.10;;;;;;;;;;5054014;28;20028;-65
2021/12/24 12:20:34;;;;;;;0.35;0.10;;;;;;;;;;5054122;28;20021;-64
2021/12/24 12:23:01;;;;;;;0.28;0.10;;;;;;;;;;5054286;28;20068;-65
2021/12/24 12:25:31;;;;;;;0.43;0.22;;;;;;;;;;5035074;28;20091;-64
2021/12/24 12:27:58;;;;;;;0.90;0.05;;;;;;;;;;5033962;28;20010;-64
2021/12/24 12:30:23;;;;;;;0.32;0.03;;;;;;;;;;5034011;28;20063;-65
2021/12/24 12:32:50;;;;;;;0.47;0.10;;;;;;;;;;5033700;28;20021;-64
2021/12/24 12:35:16;;;;;;;0.73;0.15;;;;;;;;;;5033979;28;20044;-64
2021/12/24 12:37:44;;;;;;;0.28;0.10;;;;;;;;;;5033760;28;20108;-63
2021/12/24 12:40:12;;;;;;;1.45;0.20;;;;;;;;;;5032585;28;20030;-64
2021/12/24 12:43:04;;;;;;;0.43;0.05;;;;;;;;;;5033973;28;20025;-64
2021/12/24 12:45:32;;;;;;;0.30;0.20;;;;;;;;;;5031031;28;20060;-64
2021/12/24 12:48:02;;;;;;;0.32;0.10;;;;;;;;;;5047035;28;20021;-65
2021/12/24 12:50:28;;;;;;;0.28;0.20;;;;;;;;;;5053432;28;20070;-65
2021/12/24 12:53:12;;;;;;;0.60;0.10;;;;;;;;;;5053376;28;20063;-65
2021/12/24 12:55:37;;;;;;;0.10;0.10;;;;;;;;;;5053441;28;20418;-65
2021/12/24 12:58:22;;;;;;;0.22;0.20;;;;;;;;;;5048064;28;20029;-64
2021/12/24 13:01:04;;;;;;;0.50;0.20;;;;;;;;;;5033226;28;20014;-65
2021/12/24 13:03:30;;;;;;;0.45;0.10;;;;;;;;;;5033287;28;20021;-64
2021/12/24 13:05:57;;;;;;;0.45;0.17;;;;;;;;;;5033210;28;20409;-64
2021/12/24 13:08:23;;;;;;;0.93;0.17;;;;;;;;;;5033363;28;20032;-64
2021/12/24 13:10:56;;;;;;;0.30;0.10;;;;;;;;;;5032993;28;20017;-64
2021/12/24 13:13:21;;;;;;;0.35;0.10;;;;;;;;;;5033257;28;20048;-66
2021/12/24 13:15:47;;;;;;;0.90;0.20;;;;;;;;;;5032971;28;20481;-65
2021/12/24 13:18:28;;;;;;;0.20;0.10;;;;;;;;;;5031347;28;20651;-64
2021/12/24 13:23:38;;;;;;;1.13;0.10;;;;;;;;;;5032665;28;20049;-64
2021/12/24 13:26:11;;;;;;;0.22;0.20;;;;;;;;;;5032994;28;20030;-65
2021/12/24 13:28:56;;;;;;;0.70;0.10;;;;;;;;;;5033367;28;20368;-65
2021/12/24 13:31:21;;;;;;;0.10;0.10;;;;;;;;;;5032950;28;20105;-65
2021/12/24 13:33:47;;;;;;;0.10;0.10;;;;;;;;;;5032971;28;20100;-64
2021/12/24 13:36:12;;;;;;;0.20;0.10;;;;;;;;;;5032836;28;20017;-64
2021/12/24 13:38:37;;;;;;;1.88;0.85;;;;;;;;;;5032609;28;20022;-64
2021/12/24 13:41:03;;;;;;;0.20;0.10;;;;;;;;;;5032763;28;20075;-65
2021/12/24 13:43:31;;;;;;;0.10;0.10;;;;;;;;;;5032931;28;20752;-65
2021/12/24 13:46:04;;;;;;;0.55;0.10;;;;;;;;;;5032601;28;20089;-64
2021/12/24 13:48:41;;;;;;;1.98;0.22;;;;;;;;;;5050598;28;20021;-64
2021/12/24 13:56:20;;;;;;;0.30;0.00;;;;;;;;;;5052543;28;20052;-64
2021/12/24 13:58:52;;;;;;;0.22;0.00;;;;;;;;;;5052077;28;20025;-64
2021/12/24 14:01:21;;;;;;;0.40;0.00;;;;;;;;;;5052524;28;20418;-64
2021/12/24 14:03:47;;;;;;;0.68;0.20;;;;;;;;;;5052142;28;20017;-65
2021/12/24 14:06:12;;;;;;;0.35;0.10;;;;;;;;;;5052374;28;20059;-65
2021/12/24 14:08:38;;;;;;;0.80;0.27;;;;;;;;;;5052108;28;20025;-65
2021/12/24 14:11:07;;;;;;;0.17;0.00;;;;;;;;;;5052324;28;20242;-64
2021/12/24 14:13:37;;;;;;;0.13;0.00;;;;;;;;;;5052301;28;20028;-64
2021/12/24 14:16:12;;;;;;;0.63;0.20;;;;;;;;;;5052295;28;20118;-64
2021/12/24 14:24:06;;;;;;;0.70;0.10;;;;;;;;;;5047851;28;20046;-65
2021/12/24 14:26:34;;;;;;;0.08;0.00;;;;;;;;;;5032146;28;20096;-64
2021/12/24 14:29:05;;;;;;;1.83;0.30;;;;;;;;;;5032294;28;20017;-64
2021/12/24 14:31:30;;;;;;;0.38;0.28;;;;;;;;;;5035359;28;20018;-64
2021/12/24 14:33:55;;;;;;;0.85;0.10;;;;;;;;;;5036051;28;20536;-64
2021/12/24 14:36:21;;;;;;;0.40;0.20;;;;;;;;;;5036155;28;20052;-64
2021/12/24 14:38:47;;;;;;;0.10;0.10;;;;;;;;;;5035067;28;20033;-64
2021/12/24 14:41:17;;;;;;;0.22;0.22;;;;;;;;;;5036079;28;20022;-64
2021/12/24 14:43:42;;;;;;;0.65;0.10;;;;;;;;;;5034547;28;20025;-66
2021/12/24 14:46:08;;;;;;;0.45;0.10;;;;;;;;;;5035937;28;20018;-65
2021/12/24 14:48:35;;;;;;;0.63;0.15;;;;;;;;;;5054144;28;20102;-64
2021/12/24 14:51:03;;;;;;;1.73;0.40;;;;;;;;;;5055847;28;20021;-64
2021/12/24 14:53:31;;;;;;;0.47;0.13;;;;;;;;;;5055860;28;20098;-65
2021/12/24 14:56:04;;;;;;;0.57;0.15;;;;;;;;;;5055901;28;20021;-65
2021/12/24 14:58:36;;;;;;;0.68;0.17;;;;;;;;;;5055596;28;20082;-64
2021/12/24 15:01:05;;;;;;;1.08;0.17;;;;;;;;;;5041199;28;20372;-66
2021/12/24 15:03:32;;;;;;;0.77;0.10;;;;;;;;;;5035605;28;20100;-65
2021/12/24 15:05:58;;;;;;;0.28;0.10;;;;;;;;;;5035638;28;20017;-65
2021/12/24 15:08:24;;;;;;;0.80;0.05;;;;;;;;;;5035594;28;20020;-64
2021/12/24 15:10:56;;;;;;;1.48;0.15;;;;;;;;;;5035637;28;20017;-64
2021/12/24 15:13:22;;;;;;;0.22;0.10;;;;;;;;;;5035479;28;20100;-64
2021/12/24 15:15:51;;;;;;;1.17;0.13;;;;;;;;;;5035333;28;20376;-65
2021/12/24 15:18:16;;;;;;;0.30;0.10;;;;;;;;;;5035475;28;20096;-65
2021/12/24 15:20:42;;;;;;;0.85;0.10;;;;;;;;;;5033825;28;20034;-64
2021/12/24 15:23:07;;;;;;;0.10;0.10;;;;;;;;;;5035152;28;20042;-63
2021/12/24 15:25:32;;;;;;;0.87;0.10;;;;;;;;;;5035115;28;20033;-65
2021/12/24 15:28:00;;;;;;;1.02;0.30;;;;;;;;;;5035535;28;20025;-64
2021/12/24 15:30:26;;;;;;;1.48;0.38;;;;;;;;;;5035141;28;20040;-63
2021/12/24 15:32:51;;;;;;;0.22;0.17;;;;;;;;;;5034933;28;20520;-64
2021/12/24 15:35:16;;;;;;;0.97;0.10;;;;;;;;;;5035098;28;20100;-65
2021/12/24 15:37:41;;;;;;;1.02;0.10;;;;;;;;;;5035266;28;20029;-65
2021/12/24 15:40:07;;;;;;;0.35;0.10;;;;;;;;;;5035030;28;20037;-65
2021/12/24 15:42:32;;;;;;;0.55;0.17;;;;;;;;;;5034242;28;20036;-64
2021/12/24 15:44:57;;;;;;;0.57;0.20;;;;;;;;;;5034768;28;20090;-64
2021/12/24 15:47:23;;;;;;;0.15;0.10;;;;;;;;;;5043435;28;20673;-64
2021/12/24 15:49:48;;;;;;;1.05;0.20;;;;;;;;;;5054576;28;20376;-64
2021/12/24 15:52:13;;;;;;;0.40;0.17;;;;;;;;;;5054741;28;20368;-65
2021/12/24 15:54:38;;;;;;;0.88;0.38;;;;;;;;;;5054476;28;20295;-66
2021/12/24 15:57:04;;;;;;;0.57;0.10;;;;;;;;;;5054685;28;20483;-65
2021/12/24 15:59:31;;;;;;;0.45;0.20;;;;;;;;;;5053198;28;20071;-64
2021/12/24 16:02:01;;;;;;;0.35;0.10;;;;;;;;;;5054482;28;20048;-64
2021/12/24 16:04:26;;;;;;;0.10;0.10;;;;;;;;;;5054243;28;20021;-63
2021/12/24 16:06:51;;;;;;;0.40;0.10;;;;;;;;;;5054244;28;20100;-64
2021/12/24 16:09:20;;;;;;;0.50;0.10;;;;;;;;;;5054414;28;20025;-65
2021/12/24 16:11:45;;;;;;;0.40;0.17;;;;;;;;;;5054126;28;20017;-66
2021/12/24 16:14:10;;;;;;;0.68;0.35;;;;;;;;;;5054294;28;20021;-64
2021/12/24 16:16:37;;;;;;;0.82;0.10;;;;;;;;;;5054044;28;20024;-65
2021/12/24 16:19:02;;;;;;;0.57;0.10;;;;;;;;;;5054548;28;20025;-65
2021/12/24 16:21:27;;;;;;;0.30;0.10;;;;;;;;;;5054073;28;20040;-65
2021/12/24 16:23:52;;;;;;;0.28;0.10;;;;;;;;;;5049005;28;20195;-64
2021/12/24 16:26:18;;;;;;;0.40;0.37;;;;;;;;;;5034132;28;20017;-63
2021/12/24 16:28:43;;;;;;;0.40;0.08;;;;;;;;;;5033837;28;20250;-66
2021/12/24 16:31:08;;;;;;;1.27;0.20;;;;;;;;;;5034092;28;20021;-65